createdAt,value
2022-11-06T00:00:44.837Z,98.26
2022-11-06T00:03:47.117Z,98.10
2022-11-06T00:06:49.419Z,97.76
2022-11-06T00:09:51.642Z,97.69
2022-11-06T00:12:53.828Z,97.54
2022-11-06T00:15:56.128Z,97.82
2022-11-06T00:19:01.654Z,98.18
2022-11-06T00:22:04.774Z,97.89
2022-11-06T00:25:07.225Z,98.10
2022-11-06T00:28:09.653Z,97.81
2022-11-06T00:31:17.735Z,97.96
2022-11-06T00:34:19.979Z,97.87
2022-11-06T00:37:22.119Z,98.18
2022-11-06T00:40:24.445Z,98.36
2022-11-06T00:43:26.575Z,98.47
2022-11-06T00:46:28.935Z,98.33
2022-11-06T00:49:31.065Z,98.68
2022-11-06T00:52:33.254Z,98.42
2022-11-06T00:55:35.451Z,98.42
2022-11-06T00:58:38.206Z,98.25
2022-11-06T01:01:44.146Z,98.16
2022-11-06T01:04:47.162Z,98.36
2022-11-06T01:07:49.329Z,98.17
2022-11-06T01:10:51.515Z,98.02
2022-11-06T01:13:57.037Z,98.55
2022-11-06T01:16:59.293Z,98.64
2022-11-06T01:20:01.674Z,98.75
2022-11-06T01:23:03.897Z,99.06
2022-11-06T01:26:07.862Z,99.24
2022-11-06T01:29:13.648Z,99.16
2022-11-06T01:32:18.450Z,99.13
2022-11-06T01:35:30.695Z,99.27
2022-11-06T01:38:32.839Z,99.50
2022-11-06T01:41:44.641Z,99.36
2022-11-06T01:45:19.581Z,99.64
2022-11-06T01:48:25.879Z,99.53
2022-11-06T01:51:31.013Z,99.62
2022-11-06T01:54:41.890Z,99.83
2022-11-06T01:57:44.253Z,99.98
2022-11-06T02:00:47.035Z,99.99
2022-11-06T02:03:58.919Z,99.99
2022-11-06T02:07:01.162Z,99.99
2022-11-06T02:10:04.586Z,99.99
2022-11-06T02:13:21.930Z,99.90
2022-11-06T02:16:46.624Z,99.88
2022-11-06T02:19:59.553Z,99.74
2022-11-06T02:23:38.794Z,99.78
2022-11-06T02:27:04.965Z,99.74
2022-11-06T02:30:09.623Z,99.46
2022-11-06T02:33:28.829Z,99.99
2022-11-06T02:36:35.502Z,99.85
2022-11-06T02:39:41.699Z,99.55
2022-11-06T02:42:48.985Z,99.42
2022-11-06T02:46:02.121Z,99.65
2022-11-06T02:49:38.095Z,99.52
2022-11-06T02:52:47.182Z,99.91
2022-11-06T02:55:56.762Z,99.99
2022-11-06T02:59:04.956Z,99.99
2022-11-06T03:02:14.263Z,99.98
2022-11-06T03:05:21.727Z,99.67
2022-11-06T03:08:31.520Z,99.44
2022-11-06T03:11:38.955Z,99.70
2022-11-06T03:14:59.422Z,99.67
2022-11-06T03:18:07.263Z,99.74
2022-11-06T03:21:16.209Z,99.99
2022-11-06T03:24:31.217Z,99.99
2022-11-06T03:27:36.636Z,99.58
2022-11-06T03:30:46.656Z,99.78
2022-11-06T03:33:54.614Z,99.75
2022-11-06T03:37:05.504Z,99.76
2022-11-06T03:40:12.069Z,99.99
2022-11-06T03:43:17.626Z,99.99
2022-11-06T03:46:25.143Z,99.96
2022-11-06T03:49:34.813Z,99.82
2022-11-06T03:52:43.203Z,99.71
2022-11-06T03:55:50.312Z,99.55
2022-11-06T03:58:55.933Z,99.92
2022-11-06T04:02:00.369Z,99.81
2022-11-06T04:05:29.156Z,99.77
2022-11-06T04:08:51.478Z,99.77
2022-11-06T04:12:13.736Z,99.82
2022-11-06T04:15:19.202Z,99.78
2022-11-06T04:18:21.337Z,99.84
2022-11-06T04:21:24.929Z,99.81
2022-11-06T04:24:59.827Z,99.81
2022-11-06T04:28:19.671Z,99.98
2022-11-06T04:31:40.772Z,99.96
2022-11-06T04:35:09.107Z,99.60
2022-11-06T04:38:25.794Z,99.85
2022-11-06T04:41:42.158Z,99.28
2022-11-06T04:44:50.112Z,99.65
2022-11-06T04:47:54.923Z,99.73
2022-11-06T04:51:01.295Z,99.54
2022-11-06T04:54:06.078Z,99.25
2022-11-06T04:57:08.425Z,98.98
2022-11-06T05:00:13.569Z,99.05
2022-11-06T05:03:16.461Z,99.40
2022-11-06T05:06:19.089Z,99.23
2022-11-06T05:09:21.245Z,99.34
2022-11-06T05:12:23.545Z,99.05
2022-11-06T05:15:25.690Z,98.71
2022-11-06T05:18:28.392Z,99.01
2022-11-06T05:21:48.988Z,98.90
2022-11-06T05:24:51.342Z,98.69
2022-11-06T05:27:53.498Z,98.41
2022-11-06T05:30:55.690Z,98.89
2022-11-06T05:33:57.837Z,99.15
2022-11-06T05:37:00.039Z,99.15
2022-11-06T05:40:02.266Z,99.49
2022-11-06T05:43:04.581Z,99.46
2022-11-06T05:46:14.947Z,99.62
2022-11-06T05:49:26.249Z,99.41
2022-11-06T05:52:28.557Z,99.19
2022-11-06T05:55:30.995Z,99.03
2022-11-06T05:58:33.191Z,99.49
2022-11-06T06:01:36.062Z,99.43
2022-11-06T06:04:38.312Z,99.16
2022-11-06T06:07:40.977Z,99.12
2022-11-06T06:10:44.866Z,99.09
2022-11-06T06:13:48.391Z,98.98
2022-11-06T06:16:50.554Z,98.80
2022-11-06T06:19:52.960Z,98.76
2022-11-06T06:22:56.588Z,98.75
2022-11-06T06:25:58.782Z,98.88
2022-11-06T06:29:02.185Z,99.09
2022-11-06T06:32:04.850Z,99.07
2022-11-06T06:35:07.304Z,98.88
2022-11-06T06:38:09.648Z,98.52
2022-11-06T06:41:18.050Z,98.59
2022-11-06T06:44:20.298Z,98.51
2022-11-06T06:47:22.697Z,98.49
2022-11-06T06:50:24.887Z,98.54
2022-11-06T06:53:27.494Z,97.88
2022-11-06T06:56:29.752Z,98.41
2022-11-06T06:59:31.964Z,98.25
2022-11-06T07:02:34.233Z,98.04
2022-11-06T07:05:37.077Z,98.03
2022-11-06T07:08:39.316Z,97.68
2022-11-06T07:11:41.477Z,97.86
2022-11-06T07:14:43.745Z,97.96
2022-11-06T07:17:45.911Z,97.57
2022-11-06T07:20:48.089Z,97.19
2022-11-06T07:23:50.646Z,97.87
2022-11-06T07:26:52.832Z,97.57
2022-11-06T07:29:55.373Z,97.45
2022-11-06T07:33:00.437Z,97.77
2022-11-06T07:36:04.643Z,98.09
2022-11-06T07:39:06.839Z,97.44
2022-11-06T07:42:08.985Z,96.97
2022-11-06T07:45:12.493Z,97.20
2022-11-06T07:48:15.009Z,97.05
2022-11-06T07:51:17.488Z,97.12
2022-11-06T07:54:19.613Z,97.51
2022-11-06T07:57:22.026Z,97.76
2022-11-06T08:00:24.182Z,97.66
2022-11-06T08:03:30.307Z,98.16
2022-11-06T08:06:32.648Z,97.96
2022-11-06T08:09:34.977Z,97.30
2022-11-06T08:12:37.101Z,97.83
2022-11-06T08:15:40.515Z,98.19
2022-11-06T08:18:42.791Z,97.91
2022-11-06T08:21:44.985Z,97.29
2022-11-06T08:24:47.126Z,97.75
2022-11-06T08:27:49.310Z,97.63
2022-11-06T08:30:51.748Z,97.91
2022-11-06T08:33:53.927Z,97.89
2022-11-06T08:36:56.071Z,97.33
2022-11-06T08:39:58.286Z,97.23
2022-11-06T08:43:05.301Z,96.66
2022-11-06T08:46:09.396Z,97.08
2022-11-06T08:49:11.586Z,96.81
2022-11-06T08:52:13.859Z,96.45
2022-11-06T08:55:16.108Z,96.80
2022-11-06T08:58:18.539Z,96.90
2022-11-06T09:01:20.858Z,96.80
2022-11-06T09:04:23.344Z,97.21
2022-11-06T09:07:25.609Z,97.39
2022-11-06T09:10:28.419Z,96.92
2022-11-06T09:13:30.568Z,96.96
2022-11-06T09:16:32.775Z,96.95
2022-11-06T09:19:34.911Z,96.91
2022-11-06T09:22:37.109Z,96.69
2022-11-06T09:25:39.305Z,96.59
2022-11-06T09:28:41.526Z,96.66
2022-11-06T09:31:43.939Z,96.95
2022-11-06T09:34:46.127Z,96.56
2022-11-06T09:37:49.006Z,97.28
2022-11-06T09:40:54.182Z,97.05
2022-11-06T09:44:29.731Z,97.17
2022-11-06T09:47:35.684Z,96.82
2022-11-06T09:51:01.506Z,96.94
2022-11-06T09:54:18.338Z,97.03
2022-11-06T09:57:35.649Z,96.99
2022-11-06T10:00:39.321Z,96.27
2022-11-06T10:03:55.151Z,96.77
2022-11-06T10:06:57.891Z,96.56
2022-11-06T10:10:02.020Z,96.40
2022-11-06T10:13:37.769Z,96.10
2022-11-06T10:16:51.051Z,96.33
2022-11-06T10:20:06.840Z,96.26
2022-11-06T10:23:17.638Z,96.31
2022-11-06T10:26:32.647Z,95.72
2022-11-06T10:30:00.307Z,95.26
2022-11-06T10:33:14.322Z,95.77
2022-11-06T10:36:31.375Z,95.61
2022-11-06T10:39:36.056Z,95.85
2022-11-06T10:42:40.073Z,95.57
2022-11-06T10:45:49.793Z,95.19
2022-11-06T10:48:59.670Z,94.40
2022-11-06T10:52:01.813Z,94.02
2022-11-06T10:55:41.858Z,93.42
2022-11-06T10:58:44.133Z,93.24
2022-11-06T11:01:46.611Z,92.74
2022-11-06T11:04:48.895Z,91.47
2022-11-06T11:07:51.300Z,90.18
2022-11-06T11:11:05.641Z,90.51
2022-11-06T11:14:21.586Z,90.01
2022-11-06T11:17:23.819Z,88.29
2022-11-06T11:20:33.786Z,88.66
2022-11-06T11:23:36.016Z,87.60
2022-11-06T11:26:44.123Z,85.58
2022-11-06T11:29:50.579Z,86.68
2022-11-06T11:32:54.089Z,86.82
2022-11-06T11:35:56.480Z,87.66
2022-11-06T11:38:58.694Z,87.85
2022-11-06T11:42:26.174Z,88.15
2022-11-06T11:45:28.312Z,88.20
2022-11-06T11:48:53.000Z,89.02
2022-11-06T11:51:57.000Z,89.08
2022-11-06T11:54:59.293Z,89.41
2022-11-06T11:58:01.855Z,89.76
2022-11-06T12:01:07.546Z,90.34
2022-11-06T12:04:30.408Z,90.93
2022-11-06T12:07:36.417Z,91.31
2022-11-06T12:10:41.996Z,91.47
2022-11-06T12:13:44.224Z,90.91
2022-11-06T12:16:50.253Z,90.04
2022-11-06T12:19:55.372Z,90.59
2022-11-06T12:23:00.103Z,90.76
2022-11-06T12:26:29.677Z,90.69
2022-11-06T12:30:04.065Z,90.76
2022-11-06T12:33:20.749Z,90.18
2022-11-06T12:36:34.754Z,90.57
2022-11-06T12:39:39.274Z,90.17
2022-11-06T12:42:46.593Z,90.26
2022-11-06T12:46:22.403Z,90.06
2022-11-06T12:50:24.687Z,90.11
2022-11-06T12:53:48.533Z,90.58
2022-11-06T12:57:15.849Z,90.48
2022-11-06T13:01:02.682Z,91.08
2022-11-06T13:04:17.891Z,91.73
2022-11-06T13:07:35.889Z,91.67
2022-11-06T13:10:45.799Z,91.55
2022-11-06T13:14:09.297Z,91.67
2022-11-06T13:17:30.593Z,91.40
2022-11-06T13:20:37.138Z,91.52
2022-11-06T13:23:50.242Z,91.77
2022-11-06T13:27:02.179Z,91.60
2022-11-06T13:30:18.205Z,91.91
2022-11-06T13:33:25.332Z,91.90
2022-11-06T13:36:29.897Z,92.10
2022-11-06T13:39:46.401Z,92.16
2022-11-06T13:42:54.718Z,92.06
2022-11-06T13:45:59.624Z,92.48
2022-11-06T13:49:19.594Z,92.49
2022-11-06T13:52:35.579Z,92.22
2022-11-06T13:55:49.916Z,92.85
2022-11-06T13:59:03.914Z,92.75
2022-11-06T14:02:18.360Z,92.94
2022-11-06T14:06:00.231Z,92.76
2022-11-06T14:09:09.494Z,92.91
2022-11-06T14:12:22.352Z,93.05
2022-11-06T14:15:34.996Z,93.08
2022-11-06T14:18:37.505Z,93.44
2022-11-06T14:21:39.603Z,93.78
2022-11-06T14:24:42.955Z,93.78
2022-11-06T14:27:50.928Z,93.81
2022-11-06T14:34:34.580Z,93.64
2022-11-06T14:37:42.634Z,93.67
2022-11-06T14:40:45.212Z,93.75
2022-11-06T14:43:51.702Z,94.38
2022-11-06T14:47:00.706Z,94.18
2022-11-06T14:50:28.566Z,94.33
2022-11-06T14:53:51.331Z,94.62
2022-11-06T14:56:55.077Z,95.12
2022-11-06T14:59:57.744Z,95.41
2022-11-06T15:03:00.876Z,95.68
2022-11-06T15:06:17.790Z,95.92
2022-11-06T15:09:22.819Z,96.42
2022-11-06T15:13:02.478Z,96.48
2022-11-06T15:16:10.123Z,96.38
2022-11-06T15:19:33.722Z,96.47
2022-11-06T15:22:49.062Z,96.48
2022-11-06T15:26:22.722Z,96.50
2022-11-06T15:29:46.099Z,96.69
2022-11-06T15:32:51.612Z,96.42
2022-11-06T15:35:55.852Z,96.33
2022-11-06T15:38:58.064Z,96.35
2022-11-06T15:42:00.542Z,96.26
2022-11-06T15:45:07.250Z,96.47
2022-11-06T15:48:21.867Z,96.49
2022-11-06T15:51:28.026Z,96.58
2022-11-06T15:54:39.013Z,96.57
2022-11-06T15:57:41.529Z,97.32
2022-11-06T16:00:44.589Z,97.53
2022-11-06T16:03:54.865Z,97.39
2022-11-06T16:07:00.048Z,97.15
2022-11-06T16:10:02.503Z,97.46
2022-11-06T16:13:05.371Z,97.39
2022-11-06T16:16:33.116Z,97.44
2022-11-06T16:19:38.924Z,97.80
2022-11-06T16:22:41.485Z,97.86
2022-11-06T16:25:44.134Z,97.63
2022-11-06T16:28:49.066Z,97.59
2022-11-06T16:32:07.593Z,97.81
2022-11-06T16:35:33.548Z,97.84
2022-11-06T16:38:42.061Z,97.89
2022-11-06T16:42:06.630Z,98.68
2022-11-06T16:45:22.248Z,99.20
2022-11-06T16:48:24.345Z,99.44
2022-11-06T16:51:32.800Z,98.98
2022-11-06T16:54:35.050Z,98.75
2022-11-06T16:57:42.950Z,98.72
2022-11-06T17:00:45.106Z,98.52
2022-11-06T17:03:54.315Z,98.38
2022-11-06T17:06:58.568Z,98.43
2022-11-06T17:10:34.766Z,98.36
2022-11-06T17:13:36.960Z,98.44
2022-11-06T17:16:56.233Z,98.82
2022-11-06T17:19:58.373Z,98.83
2022-11-06T17:23:04.597Z,98.40
2022-11-06T17:26:13.267Z,98.72
2022-11-06T17:29:21.869Z,98.87
2022-11-06T17:32:24.348Z,98.65
2022-11-06T17:35:26.531Z,98.39
2022-11-06T17:38:28.746Z,98.41
2022-11-06T17:41:30.975Z,98.33
2022-11-06T17:44:33.103Z,98.24
2022-11-06T17:47:35.278Z,98.07
2022-11-06T17:50:55.668Z,98.14
2022-11-06T17:53:58.977Z,98.16
2022-11-06T17:57:04.087Z,97.94
2022-11-06T18:00:07.308Z,98.11
2022-11-06T18:03:19.030Z,98.92
2022-11-06T18:06:21.614Z,98.58
2022-11-06T18:09:24.233Z,98.49
2022-11-06T18:12:27.609Z,98.37
2022-11-06T18:15:29.811Z,98.00
2022-11-06T18:18:33.758Z,97.95
2022-11-06T18:21:36.350Z,97.66
2022-11-06T18:24:38.609Z,97.61
2022-11-06T18:27:40.727Z,97.67
2022-11-06T18:30:42.962Z,97.55
2022-11-06T18:33:45.295Z,97.33
2022-11-06T18:36:49.102Z,97.60
2022-11-06T18:39:51.297Z,97.54
2022-11-06T18:42:54.992Z,97.69
2022-11-06T18:45:57.116Z,97.61
2022-11-06T18:48:59.558Z,97.47
2022-11-06T18:52:01.765Z,97.44
2022-11-06T18:55:04.217Z,97.62
2022-11-06T18:58:06.358Z,97.61
2022-11-06T19:01:13.637Z,97.44
2022-11-06T19:04:15.956Z,97.60
2022-11-06T19:07:18.206Z,97.72
2022-11-06T19:10:22.654Z,97.39
2022-11-06T19:13:24.889Z,97.68
2022-11-06T19:16:27.124Z,97.92
2022-11-06T19:19:29.337Z,98.07
2022-11-06T19:22:31.764Z,97.95
2022-11-06T19:25:34.018Z,98.68
2022-11-06T19:28:36.184Z,99.79
2022-11-06T19:31:39.358Z,99.88
2022-11-06T19:34:41.793Z,99.98
2022-11-06T19:37:44.606Z,99.74
2022-11-06T19:40:57.340Z,99.99
2022-11-06T19:43:59.694Z,99.99
2022-11-06T19:47:01.826Z,99.99
2022-11-06T19:50:04.441Z,99.99
2022-11-06T19:53:06.585Z,99.99
2022-11-06T19:56:12.657Z,99.99
2022-11-06T19:59:14.832Z,99.91
2022-11-06T20:02:17.145Z,99.27
2022-11-06T20:05:19.456Z,98.96
2022-11-06T20:08:25.167Z,99.46
2022-11-06T20:11:27.387Z,99.99
2022-11-06T20:14:30.104Z,99.84
2022-11-06T20:17:32.265Z,99.93
2022-11-06T20:20:36.442Z,99.99
2022-11-06T20:23:39.221Z,99.99
2022-11-06T20:26:41.781Z,99.99
2022-11-06T20:29:44.543Z,99.92
2022-11-06T20:32:46.856Z,99.97
2022-11-06T20:35:49.029Z,99.77
2022-11-06T20:38:59.398Z,99.99
2022-11-06T20:42:01.619Z,99.99
2022-11-06T20:45:04.402Z,99.85
2022-11-06T20:48:09.165Z,99.66
2022-11-06T20:51:15.845Z,99.70
2022-11-06T20:54:18.005Z,99.87
2022-11-06T20:57:20.207Z,99.90
2022-11-06T21:00:22.706Z,99.99
2022-11-06T21:03:24.986Z,99.99
2022-11-06T21:06:27.919Z,99.99
2022-11-06T21:09:30.131Z,99.99
2022-11-06T21:12:32.300Z,99.81
2022-11-06T21:15:34.509Z,99.75
2022-11-06T21:18:38.491Z,99.88
2022-11-06T21:21:40.746Z,99.78
2022-11-06T21:24:42.888Z,99.68
2022-11-06T21:27:45.069Z,99.74
2022-11-06T21:30:48.607Z,99.82
2022-11-06T21:33:52.755Z,99.79
2022-11-06T21:36:59.645Z,99.99
2022-11-06T21:40:05.095Z,99.99
2022-11-06T21:43:07.870Z,99.99
2022-11-06T21:46:11.736Z,99.65
2022-11-06T21:49:14.500Z,99.26
2022-11-06T21:52:34.936Z,99.27
2022-11-06T21:55:56.507Z,99.16
2022-11-06T21:59:00.954Z,99.33
2022-11-06T22:02:03.249Z,99.58
2022-11-06T22:05:05.936Z,99.59
2022-11-06T22:08:08.328Z,99.91
2022-11-06T22:11:25.554Z,99.99
2022-11-06T22:14:27.735Z,99.99
2022-11-06T22:17:32.657Z,99.99
2022-11-06T22:20:34.807Z,99.99
2022-11-06T22:23:37.800Z,99.99
2022-11-06T22:26:40.486Z,99.99
2022-11-06T22:29:42.708Z,99.99
2022-11-06T22:32:44.874Z,99.99
2022-11-06T22:35:47.167Z,99.99
2022-11-06T22:38:49.889Z,99.99
2022-11-06T22:41:52.787Z,99.99
2022-11-06T22:44:55.096Z,99.99
2022-11-06T22:47:57.497Z,99.99
2022-11-06T22:51:08.000Z,99.99
2022-11-06T22:54:10.218Z,99.99
2022-11-06T22:57:12.347Z,99.99
2022-11-06T23:00:15.077Z,99.99
2022-11-06T23:03:18.420Z,99.99
2022-11-06T23:06:20.832Z,99.99
2022-11-06T23:09:22.965Z,99.99
2022-11-06T23:12:25.146Z,99.99
2022-11-06T23:15:27.296Z,99.99
2022-11-06T23:18:36.453Z,99.99
2022-11-06T23:21:39.171Z,99.99
2022-11-06T23:24:48.259Z,99.99
2022-11-06T23:27:50.407Z,99.99
2022-11-06T23:30:52.620Z,99.99
2022-11-06T23:33:55.523Z,99.99
2022-11-06T23:36:57.855Z,99.99
2022-11-06T23:40:00.045Z,99.99
2022-11-06T23:43:02.236Z,99.99
2022-11-06T23:46:04.386Z,99.99
2022-11-06T23:49:06.566Z,99.99
2022-11-06T23:52:08.721Z,99.99
2022-11-06T23:55:11.315Z,99.99
2022-11-06T23:58:13.459Z,99.99
